Andover, NJ (07821)

5:32 PM EDT on September 03, 2015 (GMT -0400)
Lake Mohawk, Hillside/Springbrook | | Change Station
CLOSE
Current Station
Personal Weather Station
Location: Sparta Township, NJ
Elevation: 869 ft
Nearby Weather Stations

Elev 869 ft 41.01 °N, 74.66 °W | Updated 22 seconds ago

Partly Cloudy
Partly Cloudy
82.0 °F
Feels Like 86 °F
N
0.0
Wind Variable Wind from ENE
Gusts 0.0 mph

Today
High -- | Low -- °F
--% Chance of Precip.
Yesterday
High -- | Low -- °F
Precip. -- in
6:27 AM 7:28 PM
Waning Gibbous, 66% visible
Pressure 29.85 in
Visibility 10.0 miles
Clouds Few 5500 ft
Heat Index 86 °F
Dew Point 70 °F
Humidity 68%
Rainfall 0.00 in
Snow Depth Not available.
UV 1.0 out of 12
Pollen 9.60 out of 12
Air Quality Not available.
Flu Activity Not available.
METAR KFWN 032053Z AUTO VRB03KT 10SM FEW055 31/19 A2985 RMK AO2 SLP106 T03110189 56010
Pressure 29.85 in
Visibility 10.0 miles
Clouds Few 5500 ft
Heat Index 86 °F
Dew Point 70 °F
Humidity 68%
Rainfall 0.00 in
Snow Depth Not available.
UV 1.0 out of 12
Pollen 9.60 out of 12
Air Quality Not available.
Flu Activity Not available.
METAR KFWN 032053Z AUTO VRB03KT 10SM FEW055 31/19 A2985 RMK AO2 SLP106 T03110189 56010

10-Day Weather Forecast

×

Almanac

Astronomy

Sep. 03, 2015 Rise Set
Actual Time
Civil Twilight
Nautical Twilight
Astronomical Twilight
Moon
Length of Visible Light
Length of Day
Tomorrow will be .
, % of the Moon is Illuminated

Today's Extremes

State Highs State Lows

Community

WunderPhotos

Upload Photos

1,852,043 photos uploaded!

WunderBlogs® & News

Nearby

Air Quality

  Air Quality AQ Index Pollutant
Not available.

Snow Depth

Station Depth Elevation

Earthquake Activity

City Distance Mag. Time & Date
Minimum magnitude displayed is 2.5.

Coastal Water Temperatures

Place Temperature

Stations

Nearby Weather Stations

Station Location Temp. Windchill Dew Point Humidity Wind Precip. Elev Updated Type